Time;durP1;ratioP1;P1;durP2;ratioP2;P2;SDS_P1;SDS_P2;PMS_P1;PMS_P2;Temp;Humidity;BMP_temperature;BMP_pressure;BME280_temperature;BME280_humidity;BME280_pressure;Samples;Min_cycle;Max_cycle;Signal;HPM_P1;HPM_P2
2021/07/05 00:00:12;;;;;;;;;3.67;3.00;;;;;-147.17;100.00;59696.56;4991591;28;32077;-52
2021/07/05 00:02:39;;;;;;;;;3.00;2.67;;;;;-147.17;100.00;59696.56;4985296;28;31918;-53
2021/07/05 00:05:06;;;;;;;;;3.67;3.67;;;;;-147.17;100.00;59696.56;4984426;28;31961;-53
2021/07/05 00:07:31;;;;;;;;;6.33;5.33;;;;;-147.17;100.00;59696.56;4990359;28;31968;-53
2021/07/05 00:09:57;;;;;;;;;4.33;4.33;;;;;-147.17;100.00;59696.56;4990183;28;32014;-52
2021/07/05 00:12:23;;;;;;;;;3.33;3.33;;;;;-147.17;100.00;59696.56;4991163;28;32014;-52
2021/07/05 00:14:48;;;;;;;;;3.67;3.67;;;;;-147.17;100.00;59696.56;4984828;28;41851;-51
2021/07/05 00:17:14;;;;;;;;;4.00;4.00;;;;;-147.17;100.00;59696.56;4990012;28;38989;-55
2021/07/05 00:19:39;;;;;;;;;3.67;3.33;;;;;-147.17;100.00;59696.56;4980002;28;33549;-53
2021/07/05 00:22:05;;;;;;;;;4.67;4.00;;;;;-147.17;100.00;59696.56;4988759;28;32662;-51
2021/07/05 00:24:30;;;;;;;;;3.67;3.67;;;;;-147.17;100.00;59696.56;4990128;28;35439;-54
2021/07/05 00:26:55;;;;;;;;;3.00;3.00;;;;;-147.17;100.00;59696.56;4990710;28;33925;-53
2021/07/05 00:29:21;;;;;;;;;3.33;3.33;;;;;-147.17;100.00;59696.56;4989708;28;36899;-54
2021/07/05 00:31:46;;;;;;;;;5.33;4.33;;;;;-147.17;100.00;59696.56;4982726;28;31993;-53
2021/07/05 00:34:12;;;;;;;;;3.00;3.00;;;;;-147.17;100.00;59696.56;4985224;28;34417;-53
2021/07/05 00:36:37;;;;;;;;;5.67;5.33;;;;;-147.17;100.00;59696.56;4987049;28;34331;-52
2021/07/05 00:39:04;;;;;;;;;29.00;28.50;;;;;-147.17;100.00;59696.56;4986925;28;32043;-55
2021/07/05 00:41:30;;;;;;;;;8.67;8.00;;;;;-147.17;100.00;59696.56;4988845;28;32333;-55
2021/07/05 00:43:57;;;;;;;;;4.33;4.33;;;;;-147.17;100.00;59696.56;4984919;28;32197;-54
2021/07/05 00:46:25;;;;;;;;;3.67;3.67;;;;;-147.17;100.00;59696.56;4990752;28;31933;-52
2021/07/05 00:48:52;;;;;;;;;3.33;3.33;;;;;-147.17;100.00;59696.56;4985891;28;32283;-53
2021/07/05 00:51:18;;;;;;;;;5.00;4.00;;;;;-147.17;100.00;59696.56;4989373;28;36612;-53
2021/07/05 00:53:48;;;;;;;;;4.33;4.33;;;;;-147.17;100.00;59696.56;4988606;28;32388;-51
2021/07/05 00:56:15;;;;;;;;;2.67;2.67;;;;;-147.17;100.00;59696.56;4990659;28;32152;-55
2021/07/05 00:58:40;;;;;;;;;8.00;7.00;;;;;-147.17;100.00;59696.56;4989263;28;36827;-53
2021/07/05 01:01:06;;;;;;;;;3.67;3.67;;;;;-147.17;100.00;59696.56;4971634;28;38802;-53
2021/07/05 01:03:32;;;;;;;;;6.00;5.00;;;;;-147.17;100.00;59696.56;4986837;28;36506;-52
2021/07/05 01:05:57;;;;;;;;;3.67;3.00;;;;;-147.17;100.00;59696.56;4977951;28;45746;-54
2021/07/05 01:08:23;;;;;;;;;2.67;2.67;;;;;-147.17;100.00;59696.56;4963249;28;47982;-54
2021/07/05 01:10:49;;;;;;;;;4.00;4.00;;;;;-147.17;100.00;59696.56;4980473;28;47598;-54
2021/07/05 01:13:14;;;;;;;;;3.33;2.67;;;;;-147.17;100.00;59696.56;4963340;28;48068;-55
2021/07/05 01:15:40;;;;;;;;;107.50;103.25;;;;;-147.17;100.00;59696.56;4977654;28;50805;-53
2021/07/05 01:18:06;;;;;;;;;2.67;2.67;;;;;-147.17;100.00;59696.56;4974100;28;50248;-54
2021/07/05 01:20:34;;;;;;;;;4.33;3.67;;;;;-147.17;100.00;59696.56;4972082;28;51029;-51
2021/07/05 01:23:00;;;;;;;;;3.00;3.00;;;;;-147.17;100.00;59696.56;4972015;28;53663;-54
2021/07/05 01:25:27;;;;;;;;;2.33;2.33;;;;;-147.17;100.00;59696.56;4974431;28;50479;-54
2021/07/05 01:27:53;;;;;;;;;2.67;2.67;;;;;-147.17;100.00;59696.56;4974042;28;51074;-53
2021/07/05 01:30:21;;;;;;;;;1.67;1.67;;;;;-147.17;100.00;59696.56;4965727;28;50751;-54
2021/07/05 01:32:47;;;;;;;;;2.67;2.67;;;;;-147.17;100.00;59696.56;4973012;28;50997;-53
2021/07/05 01:35:14;;;;;;;;;4.33;3.33;;;;;-147.17;100.00;59696.56;4972653;28;51020;-53
2021/07/05 01:37:39;;;;;;;;;3.00;2.67;;;;;-147.17;100.00;59696.56;4984069;28;50974;-53
2021/07/05 01:40:07;;;;;;;;;3.00;2.33;;;;;-147.17;100.00;59696.56;4973105;28;51127;-51
2021/07/05 01:42:34;;;;;;;;;4.00;3.00;;;;;-147.17;100.00;59696.56;4954698;28;51643;-51
2021/07/05 01:45:00;;;;;;;;;4.00;3.67;;;;;-147.17;100.00;59696.56;4973548;28;50930;-53
2021/07/05 01:47:26;;;;;;;;;3.67;3.67;;;;;-147.17;100.00;59696.56;4972529;28;51176;-53
2021/07/05 01:49:51;;;;;;;;;3.00;3.00;;;;;-147.17;100.00;59696.56;4972915;28;51355;-54
2021/07/05 01:52:17;;;;;;;;;3.00;3.00;;;;;-147.17;100.00;59696.56;4952315;28;51177;-54
2021/07/05 01:54:42;;;;;;;;;3.00;3.00;;;;;-147.17;100.00;59696.56;4965623;28;51061;-55
2021/07/05 01:57:24;;;;;;;;;3.00;3.00;;;;;-147.17;100.00;59696.56;4973192;28;51078;-54
2021/07/05 01:59:57;;;;;;;;;3.67;3.33;;;;;-147.17;100.00;59696.56;4972292;28;51014;-54
2021/07/05 02:02:23;;;;;;;;;3.00;3.00;;;;;-147.17;100.00;59696.56;4971862;28;51837;-54
2021/07/05 02:04:49;;;;;;;;;3.00;3.00;;;;;-147.17;100.00;59696.56;4972842;28;51089;-52
2021/07/05 02:07:15;;;;;;;;;5.00;5.00;;;;;-147.17;100.00;59696.56;4955533;28;51033;-52
2021/07/05 02:09:41;;;;;;;;;4.00;4.00;;;;;-147.17;100.00;59696.56;4970870;28;51406;-53
2021/07/05 02:12:07;;;;;;;;;6.00;5.67;;;;;-147.17;100.00;59696.56;4969980;28;51705;-53
2021/07/05 02:14:33;;;;;;;;;3.33;3.00;;;;;-147.17;100.00;59696.56;4973142;28;50966;-52
2021/07/05 02:16:58;;;;;;;;;4.00;4.00;;;;;-147.17;100.00;59696.56;4972885;28;51079;-52
2021/07/05 02:19:24;;;;;;;;;2.33;2.33;;;;;-147.17;100.00;59696.56;4970150;28;51482;-53
2021/07/05 02:21:49;;;;;;;;;3.00;3.00;;;;;-147.17;100.00;59696.56;4972293;28;50970;-53
2021/07/05 02:24:15;;;;;;;;;2.00;2.00;;;;;-147.17;100.00;59696.56;4955028;28;51189;-52
2021/07/05 02:26:42;;;;;;;;;4.00;4.00;;;;;-147.17;100.00;59696.56;4970443;28;50907;-52
2021/07/05 02:29:08;;;;;;;;;3.00;2.00;;;;;-147.17;100.00;59696.56;4967553;28;50892;-52
2021/07/05 02:31:34;;;;;;;;;4.00;4.00;;;;;-147.17;100.00;59696.56;4954259;28;51893;-54
2021/07/05 02:33:59;;;;;;;;;5.00;3.67;;;;;-147.17;100.00;59696.56;4972638;28;50998;-54
2021/07/05 02:36:25;;;;;;;;;3.00;3.00;;;;;-147.17;100.00;59696.56;4955300;28;51030;-54
2021/07/05 02:38:50;;;;;;;;;3.00;3.00;;;;;-147.17;100.00;59696.56;4976131;28;51010;-52
2021/07/05 02:41:16;;;;;;;;;2.00;2.00;;;;;-147.17;100.00;59696.56;4971791;28;51658;-53
2021/07/05 02:43:41;;;;;;;;;3.00;3.00;;;;;-147.17;100.00;59696.56;4962635;28;51035;-54
2021/07/05 02:46:07;;;;;;;;;3.00;2.67;;;;;-147.17;100.00;59696.56;4970831;28;51071;-51
2021/07/05 02:48:33;;;;;;;;;3.00;3.00;;;;;-147.17;100.00;59696.56;4971218;28;51259;-54
2021/07/05 02:51:06;;;;;;;;;3.00;3.00;;;;;-147.17;100.00;59696.56;4970637;28;51241;-53
2021/07/05 02:53:32;;;;;;;;;3.33;3.00;;;;;-147.17;100.00;59696.56;4972622;28;50915;-52
2021/07/05 02:55:57;;;;;;;;;3.00;3.00;;;;;-147.17;100.00;59696.56;4972527;28;51315;-53
2021/07/05 02:58:23;;;;;;;;;4.00;4.00;;;;;-147.17;100.00;59696.56;4972500;28;50974;-52
2021/07/05 03:00:51;;;;;;;;;2.33;2.33;;;;;-147.17;100.00;59696.56;4964708;28;52094;-51
2021/07/05 03:03:17;;;;;;;;;2.67;2.67;;;;;-147.17;100.00;59696.56;4975474;28;50994;-51
2021/07/05 03:05:43;;;;;;;;;3.00;3.00;;;;;-147.17;100.00;59696.56;4974997;28;50987;-54
2021/07/05 03:08:08;;;;;;;;;3.67;3.33;;;;;-147.17;100.00;59696.56;4974101;28;51123;-52
2021/07/05 03:10:36;;;;;;;;;4.00;3.33;;;;;-147.17;100.00;59696.56;4957522;28;52020;-53
2021/07/05 03:13:05;;;;;;;;;3.33;3.00;;;;;-147.17;100.00;59696.56;4975316;28;51155;-54
2021/07/05 03:15:32;;;;;;;;;3.33;2.67;;;;;-147.17;100.00;59696.56;4975379;28;51077;-53
2021/07/05 03:17:58;;;;;;;;;3.00;3.00;;;;;-147.17;100.00;59696.56;4974786;28;50883;-53
2021/07/05 03:20:28;;;;;;;;;3.00;2.67;;;;;-147.17;100.00;59696.56;4973864;28;50954;-55
2021/07/05 03:22:56;;;;;;;;;3.67;3.67;;;;;-147.17;100.00;59696.56;4957076;28;51286;-53
2021/07/05 03:25:23;;;;;;;;;5.33;4.67;;;;;-147.17;100.00;59696.56;4974959;28;51027;-53
2021/07/05 03:27:50;;;;;;;;;3.00;3.00;;;;;-147.17;100.00;59696.56;4972698;28;51081;-53
2021/07/05 03:30:17;;;;;;;;;4.00;4.00;;;;;-147.17;100.00;59696.56;4975161;28;50954;-53
2021/07/05 03:32:43;;;;;;;;;4.00;4.00;;;;;-147.17;100.00;59696.56;4956813;28;51016;-54
2021/07/05 03:35:10;;;;;;;;;5.00;4.00;;;;;-147.17;100.00;59696.56;4974070;28;51181;-55
2021/07/05 03:37:36;;;;;;;;;3.67;3.67;;;;;-147.17;100.00;59696.56;4980072;28;51065;-55
2021/07/05 03:40:05;;;;;;;;;4.00;4.00;;;;;-147.17;100.00;59696.56;4975182;28;50903;-55
2021/07/05 03:42:31;;;;;;;;;4.00;4.00;;;;;-147.17;100.00;59696.56;4975188;28;51070;-55
2021/07/05 03:44:56;;;;;;;;;3.33;3.00;;;;;-147.17;100.00;59696.56;4970735;28;51085;-54
2021/07/05 03:47:21;;;;;;;;;4.00;4.00;;;;;-147.17;100.00;59696.56;4972990;28;51101;-53
2021/07/05 03:49:47;;;;;;;;;4.33;4.00;;;;;-147.17;100.00;59696.56;4977638;28;51131;-53
2021/07/05 03:52:12;;;;;;;;;3.00;3.00;;;;;-147.17;100.00;59696.56;4974089;28;50986;-53
2021/07/05 03:54:38;;;;;;;;;5.00;4.00;;;;;-147.17;100.00;59696.56;4975102;28;51112;-54
2021/07/05 03:57:04;;;;;;;;;4.00;4.00;;;;;-147.17;100.00;59696.56;4974255;28;51102;-53
2021/07/05 03:59:30;;;;;;;;;3.00;3.00;;;;;-147.17;100.00;59696.56;4974546;28;51951;-52
2021/07/05 04:01:55;;;;;;;;;4.00;4.00;;;;;-147.17;100.00;59696.56;4975172;28;51536;-54
2021/07/05 04:04:21;;;;;;;;;5.33;4.67;;;;;-147.17;100.00;59696.56;4969970;28;51228;-54
2021/07/05 04:06:46;;;;;;;;;4.00;4.00;;;;;-147.17;100.00;59696.56;4974816;28;51131;-53
2021/07/05 04:09:12;;;;;;;;;5.33;5.33;;;;;-147.17;100.00;59696.56;4974661;28;51592;-54
2021/07/05 04:11:37;;;;;;;;;4.00;4.00;;;;;-147.17;100.00;59696.56;4972423;28;51165;-53
2021/07/05 04:14:03;;;;;;;;;3.00;3.00;;;;;-147.17;100.00;59696.56;4973546;28;51174;-54
2021/07/05 04:16:28;;;;;;;;;2.00;2.00;;;;;-147.17;100.00;59696.56;4956375;28;51057;-54
2021/07/05 04:18:53;;;;;;;;;2.33;2.00;;;;;-147.17;100.00;59696.56;4973405;28;52113;-54
2021/07/05 04:21:20;;;;;;;;;3.33;3.33;;;;;-147.17;100.00;59696.56;4969361;28;50962;-52
2021/07/05 04:23:47;;;;;;;;;4.00;4.00;;;;;-147.17;100.00;59696.56;4974578;28;51079;-55
2021/07/05 04:26:13;;;;;;;;;2.00;2.00;;;;;-147.17;100.00;59696.56;4974612;28;51240;-55
2021/07/05 04:28:38;;;;;;;;;4.00;4.00;;;;;-147.17;100.00;59696.56;4974480;28;51559;-55
2021/07/05 04:31:03;;;;;;;;;4.67;4.67;;;;;-147.17;100.00;59696.56;4972258;28;51154;-54
2021/07/05 04:33:29;;;;;;;;;2.67;2.00;;;;;-147.17;100.00;59696.56;4973865;28;51658;-54
2021/07/05 04:35:54;;;;;;;;;3.67;3.67;;;;;-147.17;100.00;59696.56;4973549;28;51822;-53
2021/07/05 04:38:20;;;;;;;;;2.00;2.00;;;;;-147.17;100.00;59696.56;4978257;28;51858;-53
2021/07/05 04:40:46;;;;;;;;;3.00;2.00;;;;;-147.17;100.00;59696.56;4950880;28;51113;-54
2021/07/05 04:43:11;;;;;;;;;2.00;2.00;;;;;-147.17;100.00;59696.56;4973510;28;51019;-53
2021/07/05 04:45:38;;;;;;;;;2.00;2.00;;;;;-147.17;100.00;59696.56;4974325;28;51403;-54
2021/07/05 04:48:06;;;;;;;;;2.00;2.00;;;;;-147.17;100.00;59696.56;4973408;28;52001;-54
2021/07/05 04:50:32;;;;;;;;;4.00;3.67;;;;;-147.17;100.00;59696.56;4973680;28;51212;-55
2021/07/05 04:52:59;;;;;;;;;4.67;4.67;;;;;-147.17;100.00;59696.56;4964958;28;50980;-53
2021/07/05 04:55:25;;;;;;;;;5.67;5.33;;;;;-147.17;100.00;59696.56;4969528;28;51131;-54
2021/07/05 04:57:52;;;;;;;;;4.67;4.00;;;;;-147.17;100.00;59696.56;4971385;28;50931;-53
2021/07/05 05:00:21;;;;;;;;;3.33;3.00;;;;;-147.17;100.00;59696.56;4973646;28;50956;-54
2021/07/05 05:02:47;;;;;;;;;4.00;4.00;;;;;-147.17;100.00;59696.56;4972735;28;51351;-52
2021/07/05 05:05:12;;;;;;;;;2.00;2.00;;;;;-147.17;100.00;59696.56;4976704;28;51356;-55
2021/07/05 05:07:39;;;;;;;;;3.00;2.33;;;;;-147.17;100.00;59696.56;4955547;28;53746;-53
2021/07/05 05:10:07;;;;;;;;;2.00;2.00;;;;;-147.17;100.00;59696.56;4972913;28;51133;-54
2021/07/05 05:12:32;;;;;;;;;3.67;3.00;;;;;-147.17;100.00;59696.56;4965306;28;50982;-54
2021/07/05 05:14:58;;;;;;;;;2.67;2.33;;;;;-147.17;100.00;59696.56;4968414;28;51259;-53
2021/07/05 05:17:23;;;;;;;;;5.00;4.00;;;;;-147.17;100.00;59696.56;4972760;28;51269;-52
2021/07/05 05:19:49;;;;;;;;;3.00;3.00;;;;;-147.17;100.00;59696.56;4968355;28;51058;-52
2021/07/05 05:22:15;;;;;;;;;0.00;0.00;;;;;-147.17;100.00;59696.56;4972011;28;50963;-53
2021/07/05 05:24:41;;;;;;;;;2.67;2.00;;;;;-147.17;100.00;59696.56;4973536;28;51335;-53
2021/07/05 05:27:06;;;;;;;;;3.33;3.33;;;;;-147.17;100.00;59696.56;4972491;28;52302;-53
2021/07/05 05:29:32;;;;;;;;;2.00;2.00;;;;;-147.17;100.00;59696.56;4973172;28;51170;-54
2021/07/05 05:31:57;;;;;;;;;4.00;2.67;;;;;-147.17;100.00;59696.56;4975296;28;51104;-54
2021/07/05 05:34:23;;;;;;;;;4.33;4.00;;;;;-147.17;100.00;59696.56;4980747;28;51119;-51
2021/07/05 05:36:49;;;;;;;;;2.00;2.00;;;;;-147.17;100.00;59696.56;4974064;28;52712;-54
2021/07/05 05:39:14;;;;;;;;;2.67;2.00;;;;;-147.17;100.00;59696.56;4980268;28;51082;-54
2021/07/05 05:41:39;;;;;;;;;3.00;3.00;;;;;-147.17;100.00;59696.56;4972757;28;51226;-54
2021/07/05 05:44:05;;;;;;;;;3.00;3.00;;;;;-147.17;100.00;59696.56;4973384;28;50955;-54
2021/07/05 05:46:34;;;;;;;;;1.00;0.00;;;;;-147.17;100.00;59696.56;4972651;28;51645;-53
2021/07/05 05:49:01;;;;;;;;;2.00;2.00;;;;;-147.17;100.00;59696.56;4970365;28;51197;-54
2021/07/05 05:51:34;;;;;;;;;1.67;1.00;;;;;-147.17;100.00;59696.56;4974833;28;51109;-53
2021/07/05 05:54:00;;;;;;;;;2.00;2.00;;;;;-147.17;100.00;59696.56;4973065;28;50975;-54
2021/07/05 05:56:27;;;;;;;;;2.00;1.00;;;;;-147.17;100.00;59696.56;4972547;28;51590;-54
2021/07/05 05:58:55;;;;;;;;;1.67;1.67;;;;;-147.17;100.00;59696.56;4973157;28;51022;-54
2021/07/05 06:01:21;;;;;;;;;1.00;1.00;;;;;-147.17;100.00;59696.56;4972968;28;51129;-53
2021/07/05 06:03:46;;;;;;;;;2.00;2.00;;;;;-147.17;100.00;59696.56;4972779;28;51304;-52
2021/07/05 06:06:11;;;;;;;;;2.33;1.33;;;;;-147.17;100.00;59696.56;4971561;28;51932;-54
2021/07/05 06:08:37;;;;;;;;;1.33;1.00;;;;;-147.17;100.00;59696.56;4972694;28;51181;-54
2021/07/05 06:11:02;;;;;;;;;3.00;2.00;;;;;-147.17;100.00;59696.56;4972741;28;51109;-53
2021/07/05 06:13:27;;;;;;;;;2.00;2.00;;;;;-147.17;100.00;59696.56;4972694;28;51014;-55
2021/07/05 06:15:53;;;;;;;;;2.00;2.00;;;;;-147.17;100.00;59696.56;4972277;28;51659;-54
2021/07/05 06:18:18;;;;;;;;;2.00;1.33;;;;;-147.17;100.00;59696.56;4972474;28;51096;-53
2021/07/05 06:20:44;;;;;;;;;2.00;2.00;;;;;-147.17;100.00;59696.56;4972400;28;51052;-53
2021/07/05 06:23:25;;;;;;;;;5.00;5.00;;;;;-147.17;100.00;59696.56;4970323;28;51296;-54
2021/07/05 06:25:51;;;;;;;;;2.00;2.00;;;;;-147.17;100.00;59696.56;4970415;28;50965;-52
2021/07/05 06:28:18;;;;;;;;;1.33;1.33;;;;;-147.17;100.00;59696.56;4969147;28;51247;-53
2021/07/05 06:30:45;;;;;;;;;2.33;2.33;;;;;-147.17;100.00;59696.56;4965340;28;51021;-54
2021/07/05 06:33:11;;;;;;;;;2.67;2.67;;;;;-147.17;100.00;59696.56;4972261;28;51010;-53
2021/07/05 06:35:37;;;;;;;;;3.00;3.00;;;;;-147.17;100.00;59696.56;4974091;28;52032;-52
2021/07/05 06:38:02;;;;;;;;;3.00;3.00;;;;;-147.17;100.00;59696.56;4981410;28;51125;-54
2021/07/05 06:40:28;;;;;;;;;2.00;2.00;;;;;-147.17;100.00;59696.56;4975336;28;51069;-55
2021/07/05 06:42:53;;;;;;;;;2.00;2.00;;;;;-147.17;100.00;59696.56;4975567;28;50962;-54
2021/07/05 06:45:19;;;;;;;;;3.67;3.67;;;;;-147.17;100.00;59696.56;4974884;28;53143;-55
2021/07/05 06:47:44;;;;;;;;;2.33;2.00;;;;;-147.17;100.00;59696.56;4955246;28;51061;-53
2021/07/05 06:50:10;;;;;;;;;3.00;3.00;;;;;-147.17;100.00;59696.56;4975108;28;51187;-54
2021/07/05 06:52:35;;;;;;;;;3.00;3.00;;;;;-147.17;100.00;59696.56;4962202;28;51367;-53
2021/07/05 06:55:04;;;;;;;;;4.00;3.00;;;;;-147.17;100.00;59696.56;4968857;28;51704;-52
2021/07/05 06:57:29;;;;;;;;;2.00;2.00;;;;;-147.17;100.00;59696.56;4956782;28;51060;-57
2021/07/05 06:59:56;;;;;;;;;2.00;2.00;;;;;-147.17;100.00;59696.56;4974158;28;50899;-53
2021/07/05 07:02:22;;;;;;;;;2.33;2.00;;;;;-147.17;100.00;59696.56;4974769;28;51117;-53
2021/07/05 07:04:47;;;;;;;;;3.00;2.67;;;;;-147.17;100.00;59696.56;4974260;28;52735;-54
2021/07/05 07:07:13;;;;;;;;;2.33;2.33;;;;;-147.17;100.00;59696.56;4975135;28;51179;-52
2021/07/05 07:09:38;;;;;;;;;1.67;1.67;;;;;-147.17;100.00;59696.56;4975105;28;51002;-55
2021/07/05 07:12:04;;;;;;;;;1.00;1.00;;;;;-147.17;100.00;59696.56;4975336;28;50949;-55
2021/07/05 07:14:29;;;;;;;;;2.00;2.00;;;;;-147.17;100.00;59696.56;4974720;28;52519;-56
2021/07/05 07:17:03;;;;;;;;;2.00;2.00;;;;;-147.17;100.00;59696.56;4975012;28;51046;-53
2021/07/05 07:19:29;;;;;;;;;1.67;1.67;;;;;-147.17;100.00;59696.56;4974708;28;51138;-55
2021/07/05 07:21:54;;;;;;;;;3.67;3.33;;;;;-147.17;100.00;59696.56;4975210;28;51029;-55
2021/07/05 07:24:20;;;;;;;;;3.00;3.00;;;;;-147.17;100.00;59696.56;4974850;28;50954;-55
2021/07/05 07:26:47;;;;;;;;;4.33;3.33;;;;;-147.17;100.00;59696.56;4974903;28;50967;-55
2021/07/05 07:29:13;;;;;;;;;3.00;2.67;;;;;-147.17;100.00;59696.56;4957482;28;51126;-55
2021/07/05 07:31:39;;;;;;;;;2.67;2.67;;;;;-147.17;100.00;59696.56;4974907;28;51013;-53
2021/07/05 07:34:05;;;;;;;;;4.00;3.00;;;;;-147.17;100.00;59696.56;4974280;28;51734;-55
2021/07/05 07:36:30;;;;;;;;;2.67;2.00;;;;;-147.17;100.00;59696.56;4974874;28;50844;-53
2021/07/05 07:39:03;;;;;;;;;4.33;4.33;;;;;-147.17;100.00;59696.56;4987491;28;50895;-55
2021/07/05 07:41:31;;;;;;;;;4.00;3.67;;;;;-147.17;100.00;59696.56;4975106;28;50907;-55
2021/07/05 07:43:57;;;;;;;;;3.67;3.67;;;;;-147.17;100.00;59696.56;4956652;28;53748;-54
2021/07/05 07:46:23;;;;;;;;;4.67;4.67;;;;;-147.17;100.00;59696.56;4973645;28;51054;-54
2021/07/05 07:48:48;;;;;;;;;9.00;8.67;;;;;-147.17;100.00;59696.56;4974262;28;51213;-54
2021/07/05 07:51:14;;;;;;;;;7.00;7.00;;;;;-147.17;100.00;59696.56;4974641;28;51157;-54
2021/07/05 07:53:39;;;;;;;;;6.67;6.00;;;;;-147.17;100.00;59696.56;4970079;28;51779;-53
2021/07/05 07:56:04;;;;;;;;;5.00;5.00;;;;;-147.17;100.00;59696.56;4974586;28;51041;-51
2021/07/05 07:58:30;;;;;;;;;6.00;6.00;;;;;-147.17;100.00;59696.56;4957047;28;51179;-53
2021/07/05 08:00:55;;;;;;;;;6.00;6.00;;;;;-147.17;100.00;59696.56;4957043;28;51285;-53
2021/07/05 08:03:21;;;;;;;;;6.00;5.00;;;;;-147.17;100.00;59696.56;4974044;28;52095;-55
2021/07/05 08:05:46;;;;;;;;;7.67;6.67;;;;;-147.17;100.00;59696.56;4973984;28;50844;-53
2021/07/05 08:08:13;;;;;;;;;9.33;8.00;;;;;-147.17;100.00;59696.56;4974202;28;51096;-53
2021/07/05 08:10:38;;;;;;;;;9.00;9.00;;;;;-147.17;100.00;59696.56;4974678;28;50945;-53
2021/07/05 08:13:04;;;;;;;;;7.00;6.67;;;;;-147.17;100.00;59696.56;4974201;28;50922;-53
2021/07/05 08:15:30;;;;;;;;;6.33;6.33;;;;;-147.17;100.00;59696.56;4974300;28;50900;-51
2021/07/05 08:17:55;;;;;;;;;7.00;7.00;;;;;-147.17;100.00;59696.56;4961289;28;50974;-55
2021/07/05 08:20:21;;;;;;;;;6.33;6.00;;;;;-147.17;100.00;59696.56;4974076;28;51041;-53
2021/07/05 08:22:52;;;;;;;;;8.00;8.00;;;;;-147.17;100.00;59696.56;4973769;28;51735;-56
2021/07/05 08:25:18;;;;;;;;;7.67;6.33;;;;;-147.17;100.00;59696.56;4973764;28;50949;-56
2021/07/05 08:27:44;;;;;;;;;8.00;8.00;;;;;-147.17;100.00;59696.56;4973571;28;50927;-54
2021/07/05 08:30:10;;;;;;;;;6.67;6.67;;;;;-147.17;100.00;59696.56;4974103;28;51061;-55
2021/07/05 08:32:36;;;;;;;;;7.00;7.00;;;;;-147.17;100.00;59696.56;4973816;28;50998;-55
2021/07/05 08:35:03;;;;;;;;;10.33;10.33;;;;;-147.17;100.00;59696.56;4973586;28;51037;-54
2021/07/05 08:37:28;;;;;;;;;8.00;8.00;;;;;-147.17;100.00;59696.56;4947011;28;51023;-56
2021/07/05 08:39:53;;;;;;;;;8.00;8.00;;;;;-147.17;100.00;59696.56;4974644;28;51261;-54
2021/07/05 08:42:22;;;;;;;;;7.33;6.67;;;;;-147.17;100.00;59696.56;4969502;28;51019;-55
2021/07/05 08:44:48;;;;;;;;;10.33;10.33;;;;;-147.17;100.00;59696.56;4974022;28;50859;-54
2021/07/05 08:47:17;;;;;;;;;6.00;6.00;;;;;-147.17;100.00;59696.56;4973404;28;51040;-54
2021/07/05 08:49:44;;;;;;;;;6.00;5.67;;;;;-147.17;100.00;59696.56;4973578;28;51203;-54
2021/07/05 08:52:09;;;;;;;;;6.33;6.00;;;;;-147.17;100.00;59696.56;4973037;28;51921;-54
2021/07/05 08:54:35;;;;;;;;;3.67;3.67;;;;;-147.17;100.00;59696.56;4972778;28;50964;-55
2021/07/05 08:57:00;;;;;;;;;6.00;6.00;;;;;-147.17;100.00;59696.56;4955579;28;51275;-53
2021/07/05 08:59:26;;;;;;;;;5.00;5.00;;;;;-147.17;100.00;59696.56;4973726;28;51038;-53
2021/07/05 09:01:52;;;;;;;;;4.00;4.00;;;;;-147.17;100.00;59696.56;4973331;28;52783;-55
2021/07/05 09:04:17;;;;;;;;;4.00;3.67;;;;;-147.17;100.00;59696.56;4972906;28;50959;-54
2021/07/05 09:07:04;;;;;;;;;3.67;3.00;;;;;-147.17;100.00;59696.56;4973329;28;51050;-55
2021/07/05 09:09:31;;;;;;;;;3.00;3.00;;;;;-147.17;100.00;59696.56;4964702;28;50933;-56
2021/07/05 09:12:03;;;;;;;;;3.00;3.00;;;;;-147.17;100.00;59696.56;4973284;28;52319;-55
2021/07/05 09:14:29;;;;;;;;;3.00;3.00;;;;;-147.17;100.00;59696.56;4973116;28;51054;-54
2021/07/05 09:16:54;;;;;;;;;2.33;2.33;;;;;-147.17;100.00;59696.56;4972421;28;51098;-53
2021/07/05 09:19:24;;;;;;;;;3.00;3.00;;;;;-147.17;100.00;59696.56;4973017;28;51305;-56
2021/07/05 09:21:55;;;;;;;;;4.33;4.33;;;;;-147.17;100.00;59696.56;4973067;28;51791;-55
2021/07/05 09:24:28;;;;;;;;;3.00;3.00;;;;;-147.17;100.00;59696.56;4955143;28;51042;-55
2021/07/05 09:27:19;;;;;;;;;3.00;3.00;;;;;-147.17;100.00;59696.56;4972740;28;50994;-53
2021/07/05 09:29:46;;;;;;;;;4.00;3.00;;;;;-147.17;100.00;59696.56;4972648;28;51359;-53
2021/07/05 09:32:13;;;;;;;;;4.67;4.67;;;;;-147.17;100.00;59696.56;4972556;28;51708;-53
2021/07/05 09:34:43;;;;;;;;;4.67;4.33;;;;;-147.17;100.00;59696.56;4972171;28;51107;-54
2021/07/05 09:37:22;;;;;;;;;5.67;5.00;;;;;-147.17;100.00;59696.56;4976511;28;51151;-54
2021/07/05 09:40:00;;;;;;;;;4.00;3.00;;;;;-147.17;100.00;59696.56;4980395;28;50924;-54
2021/07/05 09:42:26;;;;;;;;;3.00;2.33;;;;;-147.17;100.00;59696.56;4972789;28;50944;-54
2021/07/05 09:44:52;;;;;;;;;4.00;4.00;;;;;-147.17;100.00;59696.56;4972508;28;51064;-55
2021/07/05 09:47:18;;;;;;;;;4.00;3.00;;;;;-147.17;100.00;59696.56;4972710;28;51076;-52
2021/07/05 09:49:46;;;;;;;;;2.67;2.33;;;;;-147.17;100.00;59696.56;4972210;28;51094;-53
2021/07/05 09:52:18;;;;;;;;;3.00;3.00;;;;;-147.17;100.00;59696.56;4972568;28;51820;-54
2021/07/05 09:54:48;;;;;;;;;3.00;3.00;;;;;-147.17;100.00;59696.56;4972048;28;51127;-53
2021/07/05 09:57:30;;;;;;;;;3.00;3.00;;;;;-147.17;100.00;59696.56;4972394;28;50953;-53
2021/07/05 09:59:57;;;;;;;;;1.00;1.00;;;;;-147.17;100.00;59696.56;4972053;28;51012;-54
2021/07/05 10:02:23;;;;;;;;;3.00;3.00;;;;;-147.17;100.00;59696.56;4954027;28;52344;-54
2021/07/05 10:04:48;;;;;;;;;3.00;3.00;;;;;-147.17;100.00;59696.56;4972060;28;51117;-54
2021/07/05 10:07:15;;;;;;;;;4.00;4.00;;;;;-147.17;100.00;59696.56;4974128;28;50871;-56
2021/07/05 10:09:48;;;;;;;;;3.67;3.67;;;;;-147.17;100.00;59696.56;4975409;28;51264;-54
2021/07/05 10:12:15;;;;;;;;;2.00;2.00;;;;;-147.17;100.00;59696.56;4975409;28;51819;-55
2021/07/05 10:14:40;;;;;;;;;5.00;5.00;;;;;-147.17;100.00;59696.56;4975563;28;51066;-54
2021/07/05 10:17:15;;;;;;;;;4.67;3.67;;;;;-147.17;100.00;59696.56;4975516;28;51269;-55
2021/07/05 10:19:41;;;;;;;;;3.00;3.00;;;;;-147.17;100.00;59696.56;4975448;28;51260;-56
2021/07/05 10:22:07;;;;;;;;;23.33;22.00;;;;;-147.17;100.00;59696.56;4975090;28;51089;-54
2021/07/05 10:24:34;;;;;;;;;2.00;2.00;;;;;-147.17;100.00;59696.56;4975552;28;51180;-51
2021/07/05 10:26:59;;;;;;;;;2.00;2.00;;;;;-147.17;100.00;59696.56;4975483;28;51192;-54
2021/07/05 10:29:25;;;;;;;;;3.00;3.00;;;;;-147.17;100.00;59696.56;4975767;28;50912;-50
2021/07/05 10:31:50;;;;;;;;;5.00;4.00;;;;;-147.17;100.00;59696.56;4957412;28;51712;-54
2021/07/05 10:34:16;;;;;;;;;3.00;3.00;;;;;-147.17;100.00;59696.56;4975233;28;51018;-55
2021/07/05 10:36:42;;;;;;;;;4.00;4.00;;;;;-147.17;100.00;59696.56;4941825;28;51375;-53
2021/07/05 10:39:10;;;;;;;;;3.00;3.00;;;;;-147.17;100.00;59696.56;4970725;28;51299;-53
2021/07/05 10:41:41;;;;;;;;;2.33;2.33;;;;;-147.17;100.00;59696.56;4965838;28;51026;-57
2021/07/05 10:44:09;;;;;;;;;2.00;2.00;;;;;-147.17;100.00;59696.56;4975401;28;51018;-56
2021/07/05 10:46:44;;;;;;;;;4.00;4.00;;;;;-147.17;100.00;59696.56;4974901;28;51091;-54
2021/07/05 10:49:28;;;;;;;;;4.67;4.00;;;;;-147.17;100.00;59696.56;4957307;28;50872;-54
2021/07/05 10:51:55;;;;;;;;;2.33;2.00;;;;;-147.17;100.00;59696.56;4974940;28;51977;-52
2021/07/05 10:54:53;;;;;;;;;2.67;2.67;;;;;-147.17;100.00;59696.56;4957563;28;50896;-53
2021/07/05 10:57:21;;;;;;;;;4.00;4.00;;;;;-147.17;100.00;59696.56;4975067;28;51035;-54
2021/07/05 10:59:50;;;;;;;;;3.33;3.33;;;;;-147.17;100.00;59696.56;4957571;28;51462;-53
2021/07/05 11:02:35;;;;;;;;;2.00;1.33;;;;;-147.17;100.00;59696.56;4974950;28;51188;-54
2021/07/05 11:05:01;;;;;;;;;3.00;3.00;;;;;-147.17;100.00;59696.56;4974406;28;51023;-56
2021/07/05 11:07:45;;;;;;;;;24.50;24.00;;;;;-147.17;100.00;59696.56;4956936;28;51097;-54